Time;durP1;ratioP1;P1;durP2;ratioP2;P2;SDS_P1;SDS_P2;PMS_P1;PMS_P2;Temp;Humidity;BMP_temperature;BMP_pressure;BME280_temperature;BME280_humidity;BME280_pressure;Samples;Min_cycle;Max_cycle;Signal;HPM_P1;HPM_P2
2021/04/27 00:02:04;;;;;;;19.83;11.77;;;3.50;85.90;;;;;;6192531;23;20013;-89
2021/04/27 00:04:29;;;;;;;19.13;10.32;;;3.50;86.00;;;;;;6192656;23;20004;-89
2021/04/27 00:06:55;;;;;;;18.65;10.38;;;3.40;85.90;;;;;;6192682;23;20005;-90
2021/04/27 00:09:21;;;;;;;18.05;10.48;;;3.40;85.90;;;;;;6192852;23;20004;-90
2021/04/27 00:11:49;;;;;;;16.90;9.82;;;3.40;85.80;;;;;;6192795;23;20260;-91
2021/04/27 00:14:18;;;;;;;19.75;11.50;;;3.40;85.70;;;;;;6192501;23;20016;-89
2021/04/27 00:16:43;;;;;;;18.88;11.35;;;3.40;85.50;;;;;;6192711;23;20000;-90
2021/04/27 00:19:10;;;;;;;17.42;10.77;;;3.30;85.50;;;;;;6192528;23;20435;-90
2021/04/27 00:21:36;;;;;;;18.02;10.77;;;3.30;85.70;;;;;;6192386;23;20008;-90
2021/04/27 00:24:02;;;;;;;16.27;10.18;;;3.30;85.90;;;;;;6218866;23;20071;-90
2021/04/27 00:26:28;;;;;;;16.50;10.10;;;3.30;86.00;;;;;;6192420;23;20104;-90
2021/04/27 00:28:54;;;;;;;18.15;9.85;;;3.20;86.00;;;;;;6192378;23;20421;-90
2021/04/27 00:31:19;;;;;;;15.25;8.85;;;3.20;85.90;;;;;;6192459;23;20070;-90
2021/04/27 00:33:45;;;;;;;16.90;10.07;;;3.20;86.10;;;;;;6218494;23;19996;-90
2021/04/27 00:36:11;;;;;;;13.50;8.25;;;3.10;86.10;;;;;;6192766;23;20001;-90
2021/04/27 00:38:37;;;;;;;13.50;9.00;;;3.00;86.30;;;;;;6192725;23;20005;-90
2021/04/27 00:41:03;;;;;;;11.82;7.63;;;3.00;86.50;;;;;;6192656;23;20441;-90
2021/04/27 00:43:32;;;;;;;11.55;7.13;;;2.90;86.70;;;;;;6192702;23;20000;-91
2021/04/27 00:46:00;;;;;;;13.48;8.98;;;2.80;86.90;;;;;;6192272;23;20011;-90
2021/04/27 00:48:31;;;;;;;10.70;8.00;;;2.80;87.20;;;;;;6192549;23;20009;-90
2021/04/27 00:50:59;;;;;;;12.77;7.93;;;2.80;87.50;;;;;;6193335;23;20004;-90
2021/04/27 00:53:27;;;;;;;10.70;6.97;;;2.70;87.60;;;;;;6192412;23;20081;-90
2021/04/27 00:55:53;;;;;;;11.93;6.95;;;2.70;87.70;;;;;;6192424;23;20007;-90
2021/04/27 00:58:24;;;;;;;8.88;6.07;;;2.70;87.70;;;;;;6192476;23;20385;-90
2021/04/27 01:00:51;;;;;;;12.25;7.82;;;2.60;87.80;;;;;;6193174;23;20005;-90
2021/04/27 01:03:17;;;;;;;15.27;7.45;;;2.70;87.90;;;;;;6192081;23;20197;-90
2021/04/27 01:05:46;;;;;;;18.73;7.97;;;2.60;87.90;;;;;;6191962;23;20036;-90
2021/04/27 01:09:08;;;;;;;10.50;7.13;;;2.60;88.00;;;;;;6193112;23;20001;-90
2021/04/27 01:11:53;;;;;;;11.95;7.93;;;2.60;87.90;;;;;;6068549;23;20462;-90
2021/04/27 01:14:32;;;;;;;12.43;7.07;;;2.60;88.10;;;;;;6045088;23;20006;-90
2021/04/27 01:17:03;;;;;;;14.43;9.20;;;2.60;88.00;;;;;;6147023;23;20011;-91
2021/04/27 01:19:39;;;;;;;15.43;10.35;;;2.60;88.00;;;;;;6192016;23;20011;-91
2021/04/27 01:22:09;;;;;;;21.58;13.82;;;2.60;87.90;;;;;;6191948;23;20005;-91
2021/04/27 01:24:56;;;;;;;33.25;19.73;;;2.60;87.90;;;;;;6192038;23;20011;-91
2021/04/27 01:27:24;;;;;;;40.80;24.38;;;2.60;87.90;;;;;;6191357;23;20004;-90
2021/04/27 01:29:52;;;;;;;48.10;23.42;;;2.60;88.00;;;;;;6218370;23;19997;-91
2021/04/27 01:32:20;;;;;;;46.90;23.77;;;2.60;88.00;;;;;;6191961;23;20008;-91
2021/04/27 01:34:47;;;;;;;40.67;21.75;;;2.50;88.10;;;;;;6192002;23;20375;-91
2021/04/27 01:37:14;;;;;;;41.67;21.48;;;2.50;88.20;;;;;;6191580;23;20060;-91
2021/04/27 01:39:40;;;;;;;37.05;20.30;;;2.50;88.20;;;;;;6191971;23;20072;-91
2021/04/27 01:42:07;;;;;;;36.88;19.75;;;2.50;88.40;;;;;;6192173;23;20084;-90
2021/04/27 01:44:37;;;;;;;40.35;21.08;;;2.50;88.50;;;;;;6192058;23;20001;-91
2021/04/27 01:47:04;;;;;;;39.30;19.95;;;2.50;88.60;;;;;;6193526;23;20024;-90
2021/04/27 01:49:33;;;;;;;42.60;21.85;;;2.40;88.50;;;;;;6192043;23;20032;-90
2021/04/27 01:51:59;;;;;;;36.70;19.05;;;2.40;88.70;;;;;;6191942;23;20020;-91
2021/04/27 01:54:28;;;;;;;40.63;20.00;;;2.40;88.80;;;;;;6192464;23;20454;-90
2021/04/27 01:56:55;;;;;;;35.58;20.52;;;2.40;88.80;;;;;;6218570;23;20000;-90
2021/04/27 01:59:24;;;;;;;39.03;18.52;;;2.40;88.90;;;;;;6191626;23;20088;-90
2021/04/27 02:01:49;;;;;;;38.63;18.60;;;2.40;89.00;;;;;;6194515;23;20440;-91
2021/04/27 02:04:28;;;;;;;39.88;19.15;;;2.40;89.00;;;;;;6192419;23;19997;-91
2021/04/27 02:06:54;;;;;;;39.90;19.58;;;2.30;89.00;;;;;;6191579;23;20063;-90
2021/04/27 02:09:24;;;;;;;33.72;17.88;;;2.30;89.10;;;;;;6191652;23;19997;-91
2021/04/27 02:11:55;;;;;;;41.75;18.63;;;2.30;89.20;;;;;;6191719;23;20000;-91
2021/04/27 02:14:26;;;;;;;38.53;17.42;;;2.30;89.30;;;;;;6191590;23;20032;-91
2021/04/27 02:17:04;;;;;;;30.80;15.57;;;2.30;89.40;;;;;;6191500;23;20001;-91
2021/04/27 02:19:33;;;;;;;28.60;15.10;;;2.20;89.40;;;;;;6191601;23;20050;-91
2021/04/27 02:22:05;;;;;;;28.17;16.30;;;2.20;89.50;;;;;;6191541;23;20499;-91
2021/04/27 02:24:34;;;;;;;26.98;13.07;;;2.20;89.50;;;;;;6191695;23;19997;-91
2021/04/27 02:27:03;;;;;;;31.40;16.08;;;2.20;89.60;;;;;;6191756;23;20043;-91
2021/04/27 02:29:33;;;;;;;27.20;14.90;;;2.20;89.60;;;;;;6191221;23;19996;-91
2021/04/27 02:32:02;;;;;;;27.55;15.65;;;2.10;89.70;;;;;;6191128;23;20040;-91
2021/04/27 02:34:28;;;;;;;30.15;15.23;;;2.10;89.80;;;;;;6191413;23;20013;-91
2021/04/27 02:36:55;;;;;;;33.38;16.38;;;2.10;89.90;;;;;;6191501;23;20488;-90
2021/04/27 02:39:26;;;;;;;27.50;15.90;;;2.10;90.00;;;;;;6191883;23;20301;-91
2021/04/27 02:41:52;;;;;;;26.45;14.18;;;2.10;90.00;;;;;;6191257;23;20004;-91
2021/04/27 02:44:17;;;;;;;23.15;13.20;;;2.10;90.10;;;;;;6191232;23;20009;-90
2021/04/27 02:46:45;;;;;;;23.90;14.20;;;2.10;90.20;;;;;;6191259;23;19997;-91
2021/04/27 02:49:11;;;;;;;29.48;15.38;;;2.10;90.20;;;;;;6191186;23;20088;-91
2021/04/27 02:51:38;;;;;;;21.15;13.02;;;2.10;90.20;;;;;;6191693;23;20008;-91
2021/04/27 02:54:04;;;;;;;25.67;14.25;;;2.10;90.30;;;;;;6191328;23;20004;-91
2021/04/27 02:56:31;;;;;;;25.00;14.07;;;2.10;90.30;;;;;;6191186;23;20016;-92
2021/04/27 02:58:57;;;;;;;21.65;12.73;;;2.10;90.40;;;;;;6191536;23;20083;-91
2021/04/27 03:01:25;;;;;;;18.45;11.75;;;2.10;90.40;;;;;;6191064;23;20032;-91
2021/04/27 03:03:52;;;;;;;20.67;13.68;;;2.20;90.50;;;;;;6192575;23;20088;-91
2021/04/27 03:06:17;;;;;;;23.10;14.23;;;2.20;90.50;;;;;;6191454;23;20066;-91
2021/04/27 03:08:44;;;;;;;24.85;16.35;;;2.20;90.60;;;;;;6191621;23;20075;-92
2021/04/27 03:11:10;;;;;;;29.30;18.08;;;2.30;90.60;;;;;;6191571;23;20012;-91
2021/04/27 03:13:35;;;;;;;33.20;19.33;;;2.30;90.50;;;;;;6191488;23;20001;-90
2021/04/27 03:16:04;;;;;;;39.88;24.50;;;2.40;90.50;;;;;;6191428;23;19996;-91
2021/04/27 03:18:29;;;;;;;41.47;27.05;;;2.40;90.50;;;;;;6191460;23;20009;-91
2021/04/27 03:20:55;;;;;;;40.08;24.23;;;2.40;90.40;;;;;;6217875;23;20477;-92
2021/04/27 03:23:22;;;;;;;50.20;29.58;;;2.50;90.50;;;;;;6190853;23;20038;-92
2021/04/27 03:25:49;;;;;;;41.42;25.00;;;2.60;90.40;;;;;;6190870;23;20004;-91
2021/04/27 03:28:15;;;;;;;43.85;26.48;;;2.60;90.40;;;;;;6191571;23;20055;-91
2021/04/27 03:30:41;;;;;;;35.42;20.35;;;2.70;90.30;;;;;;6191312;23;19997;-91
2021/04/27 03:33:07;;;;;;;31.02;18.52;;;2.70;90.50;;;;;;6191144;23;20009;-92
2021/04/27 03:35:43;;;;;;;26.65;17.35;;;2.90;90.60;;;;;;6191328;23;20390;-91
2021/04/27 03:38:10;;;;;;;24.88;15.60;;;3.00;90.30;;;;;;6191970;23;20000;-91
2021/04/27 03:40:36;;;;;;;20.63;13.25;;;3.10;90.20;;;;;;6217149;23;19997;-90
2021/04/27 03:43:02;;;;;;;19.40;12.65;;;3.10;90.00;;;;;;6191279;23;20015;-91
2021/04/27 03:45:35;;;;;;;16.90;11.05;;;3.20;89.40;;;;;;6190848;23;20001;-91
2021/04/27 03:48:05;;;;;;;18.92;12.73;;;3.20;89.50;;;;;;6217367;23;20412;-91
2021/04/27 03:50:31;;;;;;;24.25;15.45;;;3.20;89.00;;;;;;6191325;23;20004;-91
2021/04/27 03:52:59;;;;;;;25.92;15.05;;;3.20;88.90;;;;;;6191646;23;20111;-91
2021/04/27 03:55:25;;;;;;;23.38;16.42;;;3.20;88.70;;;;;;6192341;23;20012;-91
2021/04/27 03:57:51;;;;;;;18.58;13.07;;;3.20;88.70;;;;;;6190307;23;20032;-91
2021/04/27 04:00:18;;;;;;;19.42;12.93;;;3.20;88.70;;;;;;6191811;23;20012;-91
2021/04/27 04:02:44;;;;;;;18.83;11.68;;;3.20;88.80;;;;;;6168719;23;20020;-90
2021/04/27 04:05:10;;;;;;;18.20;11.35;;;3.30;88.70;;;;;;6158974;23;19997;-91
2021/04/27 04:07:36;;;;;;;17.30;11.70;;;3.30;89.00;;;;;;6159141;23;20001;-91
2021/04/27 04:10:03;;;;;;;15.57;11.02;;;3.40;88.60;;;;;;6134102;23;20548;-91
2021/04/27 04:12:32;;;;;;;18.17;11.10;;;3.40;88.80;;;;;;6133663;23;20013;-91
2021/04/27 04:15:00;;;;;;;17.08;10.88;;;3.50;88.90;;;;;;6157934;23;20009;-91
2021/04/27 04:17:26;;;;;;;16.67;9.48;;;3.50;88.90;;;;;;6133405;23;20029;-90
2021/04/27 04:19:52;;;;;;;14.07;9.93;;;3.60;88.70;;;;;;6158280;23;20418;-91
2021/04/27 04:22:19;;;;;;;14.48;9.60;;;3.70;88.40;;;;;;6158000;23;20010;-91
2021/04/27 04:24:45;;;;;;;13.95;9.27;;;3.70;87.90;;;;;;6157939;23;20045;-91
2021/04/27 04:27:11;;;;;;;10.68;8.40;;;3.80;88.20;;;;;;6158242;23;20417;-91
2021/04/27 04:29:36;;;;;;;11.32;8.27;;;3.90;87.60;;;;;;6158518;23;20080;-90
2021/04/27 04:32:02;;;;;;;11.07;7.80;;;4.00;87.70;;;;;;6132948;23;20005;-91
2021/04/27 04:34:28;;;;;;;9.95;7.00;;;4.10;88.00;;;;;;6158510;23;20005;-91
2021/04/27 04:36:54;;;;;;;8.70;6.55;;;4.20;88.00;;;;;;6158346;23;20001;-91
2021/04/27 04:39:20;;;;;;;10.85;7.47;;;4.30;87.20;;;;;;6160883;23;19997;-89
2021/04/27 04:41:48;;;;;;;11.25;7.50;;;4.40;87.00;;;;;;6160803;23;20445;-90
2021/04/27 04:44:14;;;;;;;11.43;7.57;;;4.50;86.90;;;;;;6159307;23;20029;-90
2021/04/27 04:46:39;;;;;;;10.95;7.82;;;4.60;86.70;;;;;;6158518;23;20002;-91
2021/04/27 04:49:13;;;;;;;14.98;7.30;;;4.70;86.60;;;;;;6158851;23;20002;-90
2021/04/27 04:51:39;;;;;;;10.63;6.90;;;4.80;86.10;;;;;;6160098;23;20020;-90
2021/04/27 04:54:07;;;;;;;9.65;7.07;;;5.00;86.60;;;;;;6162622;23;20006;-91
2021/04/27 04:56:33;;;;;;;11.55;7.18;;;5.10;85.40;;;;;;6173234;23;20037;-90
2021/04/27 04:58:59;;;;;;;8.85;6.55;;;5.20;84.90;;;;;;6180460;23;19989;-90
2021/04/27 05:01:25;;;;;;;9.88;6.78;;;5.30;84.60;;;;;;6188055;23;20478;-91
2021/04/27 05:03:51;;;;;;;10.98;6.70;;;5.40;84.40;;;;;;6244016;23;20009;-91
2021/04/27 05:06:18;;;;;;;8.80;6.95;;;5.50;83.50;;;;;;6218692;23;19992;-91
2021/04/27 05:08:47;;;;;;;10.90;6.47;;;5.60;83.60;;;;;;6218795;23;19999;-89
2021/04/27 05:11:13;;;;;;;8.27;6.10;;;5.70;82.60;;;;;;6217959;23;19997;-91
2021/04/27 05:13:39;;;;;;;7.00;5.40;;;5.80;81.80;;;;;;6206260;23;20005;-91
2021/04/27 05:16:08;;;;;;;9.15;5.75;;;5.90;81.80;;;;;;6193444;23;20054;-91
2021/04/27 05:18:37;;;;;;;9.55;5.10;;;6.00;78.60;;;;;;6168837;23;20107;-90
2021/04/27 05:21:04;;;;;;;6.20;4.80;;;6.10;78.80;;;;;;6192221;23;20428;-91
2021/04/27 05:23:30;;;;;;;7.53;4.40;;;6.20;78.20;;;;;;6193091;23;20005;-90
2021/04/27 05:25:56;;;;;;;5.25;4.05;;;6.30;75.60;;;;;;6192800;23;20086;-91
2021/04/27 05:28:22;;;;;;;6.57;4.45;;;6.30;76.80;;;;;;6193146;23;20376;-92
2021/04/27 05:30:50;;;;;;;5.50;4.07;;;6.50;76.90;;;;;;6193188;23;20005;-91
2021/04/27 05:33:18;;;;;;;5.93;4.22;;;6.60;76.50;;;;;;6193392;23;20013;-92
2021/04/27 05:35:51;;;;;;;7.35;4.93;;;6.70;75.40;;;;;;6192220;23;20003;-92
2021/04/27 05:38:16;;;;;;;9.13;4.93;;;6.80;72.50;;;;;;6192043;23;20087;-92
2021/04/27 05:40:42;;;;;;;8.65;4.70;;;6.90;70.50;;;;;;6193167;23;20008;-91
2021/04/27 05:43:13;;;;;;;5.78;4.53;;;6.90;71.00;;;;;;6191793;23;20015;-92
2021/04/27 05:45:42;;;;;;;9.00;5.15;;;7.00;70.40;;;;;;6195307;23;20007;-92
2021/04/27 05:48:11;;;;;;;5.82;4.10;;;7.10;72.50;;;;;;6194114;23;20285;-92
2021/04/27 05:50:42;;;;;;;5.55;4.45;;;7.30;71.30;;;;;;6193031;23;20016;-90
2021/04/27 05:53:10;;;;;;;5.70;3.70;;;7.40;69.80;;;;;;6192992;23;20017;-91
2021/04/27 05:55:40;;;;;;;5.55;3.90;;;7.40;70.60;;;;;;6191970;23;20004;-92
2021/04/27 05:58:08;;;;;;;6.78;3.92;;;7.50;70.80;;;;;;6191892;23;20000;-92
2021/04/27 06:00:37;;;;;;;5.30;3.80;;;7.70;71.00;;;;;;6192340;23;20068;-92
2021/04/27 06:03:08;;;;;;;5.50;3.80;;;7.70;70.50;;;;;;6200455;23;20008;-92
2021/04/27 06:05:35;;;;;;;5.07;3.72;;;7.90;71.00;;;;;;6192415;23;20416;-92
2021/04/27 06:08:01;;;;;;;4.22;3.50;;;8.00;69.70;;;;;;6193064;23;20013;-92
2021/04/27 06:10:27;;;;;;;8.50;4.03;;;8.00;68.80;;;;;;6192809;23;20012;-91
2021/04/27 06:12:53;;;;;;;8.15;4.72;;;8.10;67.40;;;;;;6193617;23;20019;-92
2021/04/27 06:15:24;;;;;;;7.60;4.13;;;8.10;66.30;;;;;;6193370;23;20083;-92
2021/04/27 06:17:50;;;;;;;5.28;3.72;;;8.20;68.30;;;;;;6192997;23;20011;-92
2021/04/27 06:20:16;;;;;;;5.28;4.10;;;8.20;68.80;;;;;;6195169;23;20060;-91
2021/04/27 06:22:42;;;;;;;5.35;4.28;;;8.40;69.00;;;;;;6193779;23;20008;-92
2021/04/27 06:25:11;;;;;;;5.03;3.67;;;8.50;68.40;;;;;;6194888;23;20015;-93
2021/04/27 06:27:37;;;;;;;4.90;4.15;;;8.60;68.90;;;;;;6197160;23;20004;-91
2021/04/27 06:30:15;;;;;;;5.32;4.38;;;8.70;68.20;;;;;;6198859;23;19996;-91
2021/04/27 06:32:47;;;;;;;7.90;4.55;;;8.70;67.00;;;;;;6195669;23;20028;-91
2021/04/27 06:35:16;;;;;;;9.55;4.78;;;8.70;66.20;;;;;;6195742;23;20278;-92
2021/04/27 06:37:42;;;;;;;8.38;4.68;;;8.70;65.50;;;;;;6195019;23;20050;-91
2021/04/27 06:40:08;;;;;;;5.30;3.85;;;8.80;66.00;;;;;;6197071;23;20004;-91
2021/04/27 06:42:37;;;;;;;4.75;3.58;;;8.90;66.70;;;;;;6195351;23;20009;-91
2021/04/27 06:45:04;;;;;;;7.10;3.70;;;9.00;67.60;;;;;;6193596;23;20087;-91
2021/04/27 06:47:32;;;;;;;4.55;3.88;;;9.10;67.00;;;;;;6192345;23;19997;-92
2021/04/27 06:49:58;;;;;;;4.70;3.53;;;9.20;67.50;;;;;;6193452;23;20062;-91
2021/04/27 06:52:26;;;;;;;4.40;3.95;;;9.40;66.50;;;;;;6192148;23;20356;-91
2021/04/27 06:54:52;;;;;;;5.35;3.97;;;9.40;65.50;;;;;;6219651;23;19993;-93
2021/04/27 06:57:28;;;;;;;5.78;4.10;;;9.50;64.60;;;;;;6194404;23;20001;-92
2021/04/27 06:59:57;;;;;;;4.85;3.63;;;9.40;62.80;;;;;;6194095;23;20412;-92
2021/04/27 07:02:22;;;;;;;4.78;3.53;;;9.40;62.30;;;;;;6193863;23;20329;-93
2021/04/27 07:04:55;;;;;;;4.20;3.40;;;9.40;63.80;;;;;;6192289;23;20039;-92
2021/04/27 07:07:35;;;;;;;4.88;3.53;;;9.40;64.30;;;;;;6193602;23;20058;-93
2021/04/27 07:10:05;;;;;;;3.53;3.17;;;9.50;66.10;;;;;;6195742;23;20004;-93
2021/04/27 07:12:31;;;;;;;5.90;4.50;;;9.70;66.20;;;;;;6199166;23;20379;-92
2021/04/27 07:15:07;;;;;;;;;;;;;;;;;;;;;
2021/04/27 07:17:33;;;;;;;6.93;4.00;;;9.90;64.40;;;;;;6224369;23;20020;-92
2021/04/27 07:20:02;;;;;;;4.53;3.88;;;9.80;62.30;;;;;;6224465;23;20023;-92
2021/04/27 07:22:31;;;;;;;4.63;3.42;;;9.90;62.30;;;;;;6222766;23;20009;-92
2021/04/27 07:24:59;;;;;;;5.20;3.95;;;9.80;62.90;;;;;;6197156;23;20011;-92
2021/04/27 07:27:32;;;;;;;5.03;4.07;;;9.80;60.50;;;;;;6196640;23;20083;-92
2021/04/27 07:30:00;;;;;;;5.97;4.07;;;9.90;59.80;;;;;;6201574;23;20001;-92
2021/04/27 07:32:26;;;;;;;5.75;4.28;;;10.00;59.90;;;;;;6192952;23;20009;-92
2021/04/27 07:34:52;;;;;;;4.05;3.08;;;10.20;59.10;;;;;;6192764;23;20015;-92
2021/04/27 07:37:19;;;;;;;7.65;4.10;;;10.40;58.40;;;;;;6195381;23;20059;-92
2021/04/27 07:39:47;;;;;;;7.05;4.05;;;10.50;58.40;;;;;;6195209;23;20001;-92
2021/04/27 07:42:13;;;;;;;4.28;3.03;;;10.50;56.60;;;;;;6195594;23;20023;-93
2021/04/27 07:44:41;;;;;;;5.20;3.65;;;10.40;57.10;;;;;;6194337;23;20009;-91
2021/04/27 07:47:07;;;;;;;3.78;3.17;;;10.50;56.90;;;;;;6193939;23;20328;-91
2021/04/27 07:49:36;;;;;;;5.40;3.65;;;10.50;54.80;;;;;;6194814;23;19997;-91
2021/04/27 07:52:02;;;;;;;5.63;3.40;;;10.50;54.40;;;;;;6222317;23;20005;-91
2021/04/27 07:54:38;;;;;;;3.60;2.92;;;10.40;56.10;;;;;;6220852;23;20001;-92
2021/04/27 07:57:07;;;;;;;3.42;2.90;;;10.60;57.00;;;;;;6197211;23;20004;-93
2021/04/27 07:59:33;;;;;;;3.95;3.08;;;10.70;56.10;;;;;;6194279;23;20004;-91
2021/04/27 08:02:08;;;;;;;8.52;3.47;;;10.80;55.30;;;;;;6195157;23;20012;-93
2021/04/27 08:04:33;;;;;;;4.95;3.38;;;10.80;55.10;;;;;;6196378;23;20032;-91
2021/04/27 08:07:02;;;;;;;8.10;3.83;;;10.80;52.30;;;;;;6197298;23;20015;-91
2021/04/27 08:09:35;;;;;;;4.20;3.33;;;10.70;50.80;;;;;;6198788;23;20023;-92
2021/04/27 08:12:01;;;;;;;4.97;3.90;;;10.70;51.70;;;;;;6198245;23;20025;-91
2021/04/27 08:14:38;;;;;;;4.15;3.75;;;10.70;52.00;;;;;;6198528;23;20328;-91
2021/04/27 08:17:08;;;;;;;4.10;3.10;;;10.60;52.20;;;;;;6201317;23;20000;-92
2021/04/27 08:19:47;;;;;;;;;;;;;;;;;;;;;
2021/04/27 08:25:31;;;;;;;;;;;;;;;;;;;;;
2021/04/27 08:31:32;;;;;;;;;;;;;;;;;;;;;
2021/04/27 08:38:06;;;;;;;4.82;3.40;;;11.20;53.90;;;;;;6249376;23;20012;-92
2021/04/27 08:41:17;;;;;;;;;;;;;;;;;;;;;
2021/04/27 08:44:19;;;;;;;5.15;3.15;;;11.60;52.80;;;;;;6134912;23;20015;-94
2021/04/27 08:46:57;;;;;;;3.42;2.85;;;11.70;52.20;;;;;;6234058;23;20008;-92
2021/04/27 08:53:22;;;;;;;;;;;;;;;;;;;;;
2021/04/27 08:55:59;;;;;;;4.25;3.28;;;12.20;52.20;;;;;;6203839;23;20054;-90
2021/04/27 08:58:59;;;;;;;5.28;3.45;;;12.40;49.60;;;;;;6249922;23;20011;-92
2021/04/27 09:01:45;;;;;;;5.18;3.55;;;12.60;48.70;;;;;;6225346;23;20003;-92
2021/04/27 09:37:19;;;;;;;3.38;2.70;;;14.00;46.90;;;;;;6213575;22;20023;-93
2021/04/27 09:40:19;;;;;;;4.15;3.10;;;14.00;46.10;;;;;;6222718;23;19999;-93
2021/04/27 09:43:50;;;;;;;3.53;2.55;;;13.80;42.60;;;;;;6232163;23;20060;-94
2021/04/27 09:50:20;;;;;;;3.20;2.42;;;13.70;46.80;;;;;;6177464;23;20017;-94
2021/04/27 09:56:35;;;;;;;2.75;2.55;;;13.80;47.20;;;;;;6269617;22;20019;-93
2021/04/27 10:00:11;;;;;;;;;;;;;;;;;;;;;
2021/04/27 10:03:11;;;;;;;;;;;;;;;;;;;;;
2021/04/27 10:06:19;;;;;;;4.07;2.95;;;13.60;49.00;;;;;;6263893;22;19996;-95
2021/04/27 10:08:52;;;;;;;4.15;3.55;;;13.40;48.00;;;;;;6239863;23;20007;-93
2021/04/27 10:12:08;;;;;;;3.20;2.90;;;13.40;49.60;;;;;;6237389;23;20074;-94
2021/04/27 10:25:49;;;;;;;;;;;;;;;;;;;;;
2021/04/27 10:28:51;;;;;;;2.90;2.38;;;13.40;50.10;;;;;;6261411;23;20019;-94
2021/04/27 10:31:54;;;;;;;;;;;;;;;;;;;;;
2021/04/27 10:38:42;;;;;;;3.47;3.10;;;13.90;49.70;;;;;;6144102;23;20014;-91
2021/04/27 10:45:43;;;;;;;;;;;;;;;;;;;;;
2021/04/27 12:53:14;;;;;;;5.53;3.92;;;9.00;63.00;;;;;;6267072;23;20034;-92
2021/04/27 12:56:04;;;;;;;;;;;;;;;;;;;;;
2021/04/27 12:59:17;;;;;;;7.57;4.72;;;9.10;63.10;;;;;;6271316;23;20020;-94
2021/04/27 13:10:00;;;;;;;;;;;;;;;;;;;;;
2021/04/27 14:01:40;;;;;;;6.05;4.68;;;7.10;73.40;;;;;;6067050;23;20086;-93
2021/04/27 14:07:56;;;;;;;7.97;5.38;;;6.90;74.40;;;;;;6072191;23;20032;-93
2021/04/27 14:14:48;;;;;;;;;;;;;;;;;;;;;
2021/04/27 14:17:44;;;;;;;7.10;4.43;;;6.80;74.50;;;;;;6072130;23;20034;-94
2021/04/27 14:20:54;;;;;;;5.82;4.50;;;6.90;74.10;;;;;;6110305;23;20012;-93
2021/04/27 14:23:27;;;;;;;6.28;4.68;;;7.00;74.40;;;;;;6165455;23;20002;-93
2021/04/27 14:26:06;;;;;;;5.63;4.72;;;7.10;74.00;;;;;;6195944;23;20017;-92
2021/04/27 14:28:57;;;;;;;5.40;4.47;;;7.10;74.00;;;;;;6190996;23;20044;-92
2021/04/27 14:31:34;;;;;;;5.85;5.18;;;7.30;74.00;;;;;;6165915;23;20029;-93
2021/04/27 14:34:06;;;;;;;5.93;5.32;;;7.30;74.90;;;;;;6166155;23;20068;-92
2021/04/27 14:37:41;;;;;;;6.45;5.28;;;7.40;74.40;;;;;;6166854;23;20013;-94
2021/04/27 14:40:30;;;;;;;4.88;4.22;;;7.50;75.40;;;;;;6131589;23;20002;-95
2021/04/27 14:47:47;;;;;;;;;;;;;;;;;;;;;
2021/04/27 14:57:18;;;;;;;6.47;5.10;;;7.70;74.20;;;;;;6140093;23;20023;-96
2021/04/27 15:00:29;;;;;;;8.05;4.97;;;7.70;74.10;;;;;;6189270;23;20005;-95
2021/04/27 15:04:30;;;;;;;7.40;5.68;;;7.60;74.40;;;;;;6201128;23;20009;-93
2021/04/27 15:09:53;;;;;;;5.15;4.10;;;7.50;75.40;;;;;;6054131;23;20435;-92
2021/04/27 15:12:24;;;;;;;5.65;3.95;;;7.50;75.20;;;;;;6086055;23;20009;-92
2021/04/27 15:14:54;;;;;;;6.28;4.07;;;7.50;75.10;;;;;;6156574;23;20479;-93
2021/04/27 15:17:23;;;;;;;6.53;4.28;;;7.50;74.90;;;;;;6158802;23;20002;-94
2021/04/27 15:23:39;;;;;;;5.18;3.78;;;7.50;75.20;;;;;;6193278;23;20486;-93
2021/04/27 15:34:06;;;;;;;5.93;3.65;;;7.40;75.80;;;;;;6127133;23;20018;-92
2021/04/27 15:36:46;;;;;;;;;;;;;;;;;;;;;
2021/04/27 15:39:23;;;;;;;4.57;3.38;;;7.30;75.30;;;;;;6249881;23;20476;-93
2021/04/27 15:41:49;;;;;;;5.32;3.95;;;7.30;75.40;;;;;;6227004;23;20007;-92
2021/04/27 15:45:04;;;;;;;6.22;4.28;;;7.30;75.50;;;;;;6228396;23;20000;-93
2021/04/27 15:48:38;;;;;;;;;;;;;;;;;;;;;
2021/04/27 15:54:52;;;;;;;4.90;4.13;;;7.30;76.40;;;;;;5941795;24;20077;-92
2021/04/27 15:58:35;;;;;;;;;;;;;;;;;;;;;
2021/04/27 16:04:30;;;;;;;7.47;5.32;;;7.00;76.80;;;;;;5921633;24;20009;-93
2021/04/27 16:07:12;;;;;;;6.68;5.43;;;7.00;77.20;;;;;;5855061;24;20017;-95
2021/04/27 16:09:54;;;;;;;6.00;5.03;;;6.90;77.40;;;;;;5919857;24;20025;-94
2021/04/27 16:13:01;;;;;;;6.72;4.97;;;6.90;77.90;;;;;;5980172;23;20039;-93
2021/04/27 16:15:27;;;;;;;6.32;4.93;;;6.80;77.90;;;;;;5993783;23;20015;-93
2021/04/27 16:17:55;;;;;;;7.10;6.40;;;6.80;78.60;;;;;;6003793;23;20003;-92
2021/04/27 16:20:20;;;;;;;6.80;5.65;;;6.70;79.80;;;;;;6007302;23;20083;-92
2021/04/27 16:22:55;;;;;;;6.43;5.32;;;6.60;79.90;;;;;;6091071;23;20014;-93
2021/04/27 16:25:37;;;;;;;6.72;5.38;;;6.50;79.60;;;;;;6147123;23;20316;-93
2021/04/27 16:31:41;;;;;;;5.93;4.97;;;6.30;80.90;;;;;;6157931;23;20053;-94
2021/04/27 16:34:31;;;;;;;6.13;5.15;;;6.10;80.20;;;;;;6210555;23;20016;-93
2021/04/27 16:37:20;;;;;;;;;;;;;;;;;;;;;
2021/04/27 16:39:55;;;;;;;10.32;5.85;;;6.00;80.90;;;;;;6236131;23;20019;-94
2021/04/27 16:42:24;;;;;;;7.18;4.55;;;6.00;80.70;;;;;;6211010;23;20005;-93
2021/04/27 16:45:49;;;;;;;6.82;5.80;;;5.90;80.80;;;;;;6209693;23;20061;-93
2021/04/27 16:48:10;;;;;;;7.38;5.72;;;5.90;81.30;;;;;;6232023;23;19989;-91
2021/04/27 16:50:40;;;;;;;7.85;6.13;;;6.00;81.10;;;;;;6214657;23;20052;-92
2021/04/27 16:53:15;;;;;;;7.60;6.32;;;5.90;81.90;;;;;;6214421;23;20027;-92
2021/04/27 16:55:43;;;;;;;7.00;5.68;;;5.90;82.40;;;;;;6182674;23;20428;-92
2021/04/27 16:58:14;;;;;;;8.25;6.18;;;5.90;81.80;;;;;;6180302;23;20001;-94
2021/04/27 17:00:53;;;;;;;6.93;5.57;;;5.90;82.00;;;;;;6178184;23;20004;-92
2021/04/27 17:03:49;;;;;;;6.05;4.95;;;5.90;81.40;;;;;;6201119;23;20007;-93
2021/04/27 17:06:38;;;;;;;7.53;5.45;;;5.80;82.50;;;;;;6200014;23;20001;-93
2021/04/27 17:09:16;;;;;;;;;;;;;;;;;;;;;
2021/04/27 17:12:25;;;;;;;;;;;;;;;;;;;;;
2021/04/27 17:15:35;;;;;;;5.95;4.78;;;5.80;82.40;;;;;;6230684;23;20424;-93
2021/04/27 17:21:37;;;;;;;;;;;;;;;;;;;;;
2021/04/27 17:24:32;;;;;;;5.80;4.30;;;5.80;81.10;;;;;;6228978;23;20028;-94
2021/04/27 17:30:31;;;;;;;;;;;;;;;;;;;;;
2021/04/27 17:33:55;;;;;;;5.32;4.00;;;5.90;80.80;;;;;;6225617;23;20043;-95
2021/04/27 17:37:22;;;;;;;3.47;3.08;;;6.00;80.70;;;;;;6190889;23;20004;-94
2021/04/27 17:40:38;;;;;;;4.97;3.67;;;6.10;80.40;;;;;;6106396;23;20003;-93
2021/04/27 17:43:14;;;;;;;;;;;;;;;;;;;;;
2021/04/27 17:46:06;;;;;;;5.30;4.10;;;6.00;79.40;;;;;;6102944;23;20041;-93
2021/04/27 17:52:08;;;;;;;6.55;4.07;;;5.80;79.60;;;;;;6112335;23;20002;-93
2021/04/27 17:54:42;;;;;;;3.92;3.33;;;5.70;79.70;;;;;;6106089;23;20010;-93
2021/04/27 17:57:30;;;;;;;5.20;3.65;;;5.60;79.70;;;;;;6190388;23;20464;-92
2021/04/27 18:00:39;;;;;;;5.60;4.13;;;5.60;79.80;;;;;;6195374;23;20023;-92
2021/04/27 18:03:16;;;;;;;6.72;4.55;;;5.60;80.10;;;;;;6194699;23;20005;-93
2021/04/27 18:06:26;;;;;;;6.80;4.97;;;5.40;80.20;;;;;;6195195;23;20035;-92
2021/04/27 18:09:04;;;;;;;10.15;6.13;;;5.40;80.30;;;;;;6221876;23;19996;-91
2021/04/27 18:11:37;;;;;;;8.52;6.25;;;5.40;80.70;;;;;;6195105;23;20028;-92
2021/04/27 18:14:11;;;;;;;9.70;7.45;;;5.30;80.60;;;;;;6195967;23;20344;-93
2021/04/27 18:17:27;;;;;;;8.10;5.83;;;5.20;80.80;;;;;;6196651;23;20008;-93
2021/04/27 18:20:01;;;;;;;9.40;6.57;;;5.20;81.20;;;;;;6197514;23;20004;-93
2021/04/27 18:23:02;;;;;;;9.20;6.53;;;5.20;81.40;;;;;;6194187;23;20083;-92
2021/04/27 18:25:47;;;;;;;9.15;6.38;;;5.20;81.60;;;;;;6195764;23;20009;-94
2021/04/27 18:31:36;;;;;;;8.85;6.57;;;5.30;82.20;;;;;;6239816;23;20048;-93
2021/04/27 18:34:04;;;;;;;8.50;6.70;;;5.30;82.00;;;;;;6218719;23;20021;-95
2021/04/27 18:37:02;;;;;;;8.93;5.60;;;5.30;82.10;;;;;;6242729;23;19997;-93
2021/04/27 18:39:33;;;;;;;6.57;5.10;;;5.30;82.30;;;;;;6215159;23;20031;-93
2021/04/27 18:42:16;;;;;;;;;;;;;;;;;;;;;
2021/04/27 18:44:55;;;;;;;5.18;4.03;;;5.40;82.20;;;;;;6222304;23;20028;-92
2021/04/27 18:47:35;;;;;;;5.40;4.38;;;5.40;82.00;;;;;;6195804;23;20008;-93
2021/04/27 18:50:14;;;;;;;5.28;4.38;;;5.30;81.70;;;;;;6193702;23;19997;-93
2021/04/27 18:52:59;;;;;;;6.75;4.78;;;5.30;81.70;;;;;;6195217;23;20004;-93
2021/04/27 18:55:28;;;;;;;5.22;4.57;;;5.20;81.80;;;;;;6195200;23;20435;-94
2021/04/27 18:58:25;;;;;;;6.93;4.72;;;5.10;81.70;;;;;;6198301;23;20005;-92
2021/04/27 19:00:53;;;;;;;7.65;6.15;;;5.00;81.90;;;;;;6195285;23;19997;-93
2021/04/27 19:03:38;;;;;;;;;;;;;;;;;;;;;
2021/04/27 19:06:23;;;;;;;9.75;5.78;;;4.90;82.20;;;;;;6221409;23;20036;-93
2021/04/27 19:08:51;;;;;;;;;;;4.80;82.20;;;;;;6194750;23;20029;-93
2021/04/27 19:11:24;;;;;;;5.93;5.32;;;4.70;82.80;;;;;;6194098;23;19949;-92
2021/04/27 19:16:52;;;;;;;10.27;7.25;;;4.60;82.60;;;;;;6226675;23;20012;-92
2021/04/27 19:19:27;;;;;;;11.90;9.00;;;4.50;82.80;;;;;;6197024;23;20019;-93
2021/04/27 19:22:33;;;;;;;;;;;;;;;;;;;;;